sensor_id;sensor_type;location;lat;lon;timestamp;P1;durP1;ratioP1;P2;durP2;ratioP2
22531;SDS011;11432;46.924;7.114;2023-06-22T00:01:52;23.08;;;6.43;;
22531;SDS011;11432;46.924;7.114;2023-06-22T00:04:18;15.38;;;6.15;;
22531;SDS011;11432;46.924;7.114;2023-06-22T00:06:44;15.20;;;6.47;;
22531;SDS011;11432;46.924;7.114;2023-06-22T00:09:09;10.57;;;6.22;;
22531;SDS011;11432;46.924;7.114;2023-06-22T00:11:36;14.75;;;6.10;;
22531;SDS011;11432;46.924;7.114;2023-06-22T00:14:02;17.20;;;6.45;;
22531;SDS011;11432;46.924;7.114;2023-06-22T00:16:28;11.98;;;6.10;;
22531;SDS011;11432;46.924;7.114;2023-06-22T00:18:53;13.65;;;6.80;;
22531;SDS011;11432;46.924;7.114;2023-06-22T00:21:19;14.70;;;6.72;;
22531;SDS011;11432;46.924;7.114;2023-06-22T00:23:45;12.77;;;6.35;;
22531;SDS011;11432;46.924;7.114;2023-06-22T00:26:12;10.73;;;6.50;;
22531;SDS011;11432;46.924;7.114;2023-06-22T00:28:38;12.75;;;6.50;;
22531;SDS011;11432;46.924;7.114;2023-06-22T00:31:04;15.18;;;6.03;;
22531;SDS011;11432;46.924;7.114;2023-06-22T00:33:29;15.07;;;7.10;;
22531;SDS011;11432;46.924;7.114;2023-06-22T00:35:56;17.20;;;6.53;;
22531;SDS011;11432;46.924;7.114;2023-06-22T00:38:22;11.20;;;6.10;;
22531;SDS011;11432;46.924;7.114;2023-06-22T00:40:47;15.07;;;5.97;;
22531;SDS011;11432;46.924;7.114;2023-06-22T00:43:13;12.75;;;6.50;;
22531;SDS011;11432;46.924;7.114;2023-06-22T00:45:39;10.35;;;6.25;;
22531;SDS011;11432;46.924;7.114;2023-06-22T00:48:05;10.23;;;6.03;;
22531;SDS011;11432;46.924;7.114;2023-06-22T00:50:32;14.85;;;6.65;;
22531;SDS011;11432;46.924;7.114;2023-06-22T00:53:03;13.02;;;6.18;;
22531;SDS011;11432;46.924;7.114;2023-06-22T00:55:42;11.70;;;5.65;;
22531;SDS011;11432;46.924;7.114;2023-06-22T00:58:10;15.10;;;6.30;;
22531;SDS011;11432;46.924;7.114;2023-06-22T01:00:36;11.75;;;6.20;;
22531;SDS011;11432;46.924;7.114;2023-06-22T01:03:03;13.68;;;6.70;;
22531;SDS011;11432;46.924;7.114;2023-06-22T01:05:29;14.63;;;6.22;;
22531;SDS011;11432;46.924;7.114;2023-06-22T01:13:40;20.80;;;7.43;;
22531;SDS011;11432;46.924;7.114;2023-06-22T01:16:19;15.45;;;5.95;;
22531;SDS011;11432;46.924;7.114;2023-06-22T01:18:49;17.52;;;6.15;;
22531;SDS011;11432;46.924;7.114;2023-06-22T01:21:18;12.15;;;5.70;;
22531;SDS011;11432;46.924;7.114;2023-06-22T01:26:36;11.40;;;6.70;;
22531;SDS011;11432;46.924;7.114;2023-06-22T01:29:21;13.35;;;6.45;;
22531;SDS011;11432;46.924;7.114;2023-06-22T01:31:49;13.70;;;6.28;;
22531;SDS011;11432;46.924;7.114;2023-06-22T01:34:17;17.25;;;7.15;;
22531;SDS011;11432;46.924;7.114;2023-06-22T01:36:43;16.08;;;7.05;;
22531;SDS011;11432;46.924;7.114;2023-06-22T01:39:10;17.40;;;7.43;;
22531;SDS011;11432;46.924;7.114;2023-06-22T01:41:38;15.48;;;6.53;;
22531;SDS011;11432;46.924;7.114;2023-06-22T01:44:05;14.52;;;7.13;;
22531;SDS011;11432;46.924;7.114;2023-06-22T01:46:34;11.00;;;6.60;;
22531;SDS011;11432;46.924;7.114;2023-06-22T01:49:01;12.60;;;6.90;;
22531;SDS011;11432;46.924;7.114;2023-06-22T01:51:28;15.85;;;7.05;;
22531;SDS011;11432;46.924;7.114;2023-06-22T01:53:55;14.40;;;6.78;;
22531;SDS011;11432;46.924;7.114;2023-06-22T01:56:20;15.80;;;6.78;;
22531;SDS011;11432;46.924;7.114;2023-06-22T01:58:58;18.17;;;6.68;;
22531;SDS011;11432;46.924;7.114;2023-06-22T02:01:54;21.20;;;7.80;;
22531;SDS011;11432;46.924;7.114;2023-06-22T02:04:38;17.35;;;6.50;;
22531;SDS011;11432;46.924;7.114;2023-06-22T02:07:28;18.23;;;6.93;;
22531;SDS011;11432;46.924;7.114;2023-06-22T02:09:57;14.15;;;5.97;;
22531;SDS011;11432;46.924;7.114;2023-06-22T02:12:24;14.65;;;6.55;;
22531;SDS011;11432;46.924;7.114;2023-06-22T02:14:52;13.10;;;6.33;;
22531;SDS011;11432;46.924;7.114;2023-06-22T02:17:18;15.43;;;6.32;;
22531;SDS011;11432;46.924;7.114;2023-06-22T02:19:44;14.00;;;6.45;;
22531;SDS011;11432;46.924;7.114;2023-06-22T02:22:10;16.65;;;6.57;;
22531;SDS011;11432;46.924;7.114;2023-06-22T02:24:37;18.23;;;6.63;;
22531;SDS011;11432;46.924;7.114;2023-06-22T02:27:03;17.63;;;7.03;;
22531;SDS011;11432;46.924;7.114;2023-06-22T02:29:30;11.13;;;5.82;;
22531;SDS011;11432;46.924;7.114;2023-06-22T02:31:56;18.38;;;6.93;;
22531;SDS011;11432;46.924;7.114;2023-06-22T02:34:22;14.77;;;6.40;;
22531;SDS011;11432;46.924;7.114;2023-06-22T02:36:48;14.85;;;6.30;;
22531;SDS011;11432;46.924;7.114;2023-06-22T02:41:44;16.58;;;6.00;;
22531;SDS011;11432;46.924;7.114;2023-06-22T02:44:09;16.70;;;6.60;;
22531;SDS011;11432;46.924;7.114;2023-06-22T02:46:35;14.82;;;5.93;;
22531;SDS011;11432;46.924;7.114;2023-06-22T02:49:01;13.85;;;6.50;;
22531;SDS011;11432;46.924;7.114;2023-06-22T02:51:26;11.60;;;6.10;;
22531;SDS011;11432;46.924;7.114;2023-06-22T02:53:52;14.68;;;6.28;;
22531;SDS011;11432;46.924;7.114;2023-06-22T02:56:22;11.18;;;6.30;;
22531;SDS011;11432;46.924;7.114;2023-06-22T02:58:50;18.95;;;6.45;;
22531;SDS011;11432;46.924;7.114;2023-06-22T03:01:16;17.60;;;6.28;;
22531;SDS011;11432;46.924;7.114;2023-06-22T03:03:41;16.00;;;5.93;;
22531;SDS011;11432;46.924;7.114;2023-06-22T03:06:07;10.57;;;5.20;;
22531;SDS011;11432;46.924;7.114;2023-06-22T03:08:33;14.98;;;6.32;;
22531;SDS011;11432;46.924;7.114;2023-06-22T03:10:59;12.88;;;5.68;;
22531;SDS011;11432;46.924;7.114;2023-06-22T03:13:24;15.77;;;5.80;;
22531;SDS011;11432;46.924;7.114;2023-06-22T03:15:50;16.80;;;5.70;;
22531;SDS011;11432;46.924;7.114;2023-06-22T03:18:16;13.82;;;5.30;;
22531;SDS011;11432;46.924;7.114;2023-06-22T03:20:41;11.85;;;5.53;;
22531;SDS011;11432;46.924;7.114;2023-06-22T03:23:07;12.20;;;5.53;;
22531;SDS011;11432;46.924;7.114;2023-06-22T03:25:33;11.82;;;5.85;;
22531;SDS011;11432;46.924;7.114;2023-06-22T03:27:58;11.70;;;5.40;;
22531;SDS011;11432;46.924;7.114;2023-06-22T03:30:25;13.55;;;5.88;;
22531;SDS011;11432;46.924;7.114;2023-06-22T03:32:51;16.83;;;5.78;;
22531;SDS011;11432;46.924;7.114;2023-06-22T03:35:17;17.80;;;5.25;;
22531;SDS011;11432;46.924;7.114;2023-06-22T03:37:42;11.77;;;5.32;;
22531;SDS011;11432;46.924;7.114;2023-06-22T03:40:08;16.88;;;5.50;;
22531;SDS011;11432;46.924;7.114;2023-06-22T03:42:34;16.65;;;5.57;;
22531;SDS011;11432;46.924;7.114;2023-06-22T03:45:03;16.42;;;5.60;;
22531;SDS011;11432;46.924;7.114;2023-06-22T03:47:29;10.77;;;5.68;;
22531;SDS011;11432;46.924;7.114;2023-06-22T03:49:54;13.18;;;5.80;;
22531;SDS011;11432;46.924;7.114;2023-06-22T03:52:21;11.93;;;5.32;;
22531;SDS011;11432;46.924;7.114;2023-06-22T03:54:47;15.57;;;5.70;;
22531;SDS011;11432;46.924;7.114;2023-06-22T03:57:13;11.00;;;4.90;;
22531;SDS011;11432;46.924;7.114;2023-06-22T03:59:38;14.68;;;5.70;;
22531;SDS011;11432;46.924;7.114;2023-06-22T04:02:04;13.13;;;5.70;;
22531;SDS011;11432;46.924;7.114;2023-06-22T04:04:30;11.38;;;5.50;;
22531;SDS011;11432;46.924;7.114;2023-06-22T04:06:55;9.07;;;5.00;;
22531;SDS011;11432;46.924;7.114;2023-06-22T04:09:21;10.95;;;4.95;;
22531;SDS011;11432;46.924;7.114;2023-06-22T04:11:46;8.68;;;4.93;;
22531;SDS011;11432;46.924;7.114;2023-06-22T04:14:12;17.75;;;5.38;;
22531;SDS011;11432;46.924;7.114;2023-06-22T04:16:38;13.15;;;4.97;;
22531;SDS011;11432;46.924;7.114;2023-06-22T04:19:03;11.57;;;5.05;;
22531;SDS011;11432;46.924;7.114;2023-06-22T04:21:29;14.45;;;5.53;;
22531;SDS011;11432;46.924;7.114;2023-06-22T04:23:55;12.35;;;5.10;;
22531;SDS011;11432;46.924;7.114;2023-06-22T04:26:20;16.02;;;4.95;;
22531;SDS011;11432;46.924;7.114;2023-06-22T04:28:49;16.83;;;5.05;;
22531;SDS011;11432;46.924;7.114;2023-06-22T04:31:16;16.17;;;4.68;;
22531;SDS011;11432;46.924;7.114;2023-06-22T04:33:44;10.30;;;4.18;;
22531;SDS011;11432;46.924;7.114;2023-06-22T04:36:09;9.93;;;4.15;;
22531;SDS011;11432;46.924;7.114;2023-06-22T04:38:38;9.20;;;3.85;;
22531;SDS011;11432;46.924;7.114;2023-06-22T04:41:04;12.18;;;4.47;;
22531;SDS011;11432;46.924;7.114;2023-06-22T04:43:29;11.70;;;4.60;;
22531;SDS011;11432;46.924;7.114;2023-06-22T04:45:56;16.38;;;4.60;;
22531;SDS011;11432;46.924;7.114;2023-06-22T04:48:29;11.40;;;4.68;;
22531;SDS011;11432;46.924;7.114;2023-06-22T04:50:58;16.52;;;5.13;;
22531;SDS011;11432;46.924;7.114;2023-06-22T04:53:31;14.18;;;5.15;;
22531;SDS011;11432;46.924;7.114;2023-06-22T04:55:57;16.13;;;5.43;;
22531;SDS011;11432;46.924;7.114;2023-06-22T04:58:22;10.68;;;5.40;;
22531;SDS011;11432;46.924;7.114;2023-06-22T05:00:52;14.88;;;5.80;;
22531;SDS011;11432;46.924;7.114;2023-06-22T05:03:17;18.52;;;6.65;;
22531;SDS011;11432;46.924;7.114;2023-06-22T05:05:43;17.40;;;6.15;;
22531;SDS011;11432;46.924;7.114;2023-06-22T05:08:09;17.85;;;6.53;;
22531;SDS011;11432;46.924;7.114;2023-06-22T05:10:35;17.55;;;6.45;;
22531;SDS011;11432;46.924;7.114;2023-06-22T05:13:01;16.27;;;5.55;;
22531;SDS011;11432;46.924;7.114;2023-06-22T05:15:26;13.13;;;5.93;;
22531;SDS011;11432;46.924;7.114;2023-06-22T05:17:55;17.70;;;6.07;;
22531;SDS011;11432;46.924;7.114;2023-06-22T05:20:21;19.52;;;6.53;;
22531;SDS011;11432;46.924;7.114;2023-06-22T05:22:46;12.50;;;6.70;;
22531;SDS011;11432;46.924;7.114;2023-06-22T05:25:12;16.08;;;5.95;;
22531;SDS011;11432;46.924;7.114;2023-06-22T05:27:38;13.70;;;6.15;;
22531;SDS011;11432;46.924;7.114;2023-06-22T05:30:05;13.02;;;6.32;;
22531;SDS011;11432;46.924;7.114;2023-06-22T05:32:31;14.57;;;6.38;;
22531;SDS011;11432;46.924;7.114;2023-06-22T05:34:57;16.35;;;6.40;;
22531;SDS011;11432;46.924;7.114;2023-06-22T05:37:23;15.02;;;6.88;;
22531;SDS011;11432;46.924;7.114;2023-06-22T05:39:48;17.17;;;7.22;;
22531;SDS011;11432;46.924;7.114;2023-06-22T05:42:14;16.38;;;7.82;;
22531;SDS011;11432;46.924;7.114;2023-06-22T05:44:39;22.05;;;9.05;;
22531;SDS011;11432;46.924;7.114;2023-06-22T05:47:05;17.88;;;8.07;;
22531;SDS011;11432;46.924;7.114;2023-06-22T05:49:31;20.67;;;9.43;;
22531;SDS011;11432;46.924;7.114;2023-06-22T05:51:58;17.67;;;5.13;;
22531;SDS011;11432;46.924;7.114;2023-06-22T05:54:24;18.52;;;7.45;;
22531;SDS011;11432;46.924;7.114;2023-06-22T05:56:50;19.88;;;7.25;;
22531;SDS011;11432;46.924;7.114;2023-06-22T05:59:16;19.80;;;7.45;;
22531;SDS011;11432;46.924;7.114;2023-06-22T06:01:42;18.85;;;7.82;;
22531;SDS011;11432;46.924;7.114;2023-06-22T06:04:08;16.80;;;6.88;;
22531;SDS011;11432;46.924;7.114;2023-06-22T06:06:33;16.55;;;6.95;;
22531;SDS011;11432;46.924;7.114;2023-06-22T06:08:59;16.10;;;6.88;;
22531;SDS011;11432;46.924;7.114;2023-06-22T06:11:25;14.52;;;6.75;;
22531;SDS011;11432;46.924;7.114;2023-06-22T06:13:51;19.13;;;7.82;;
22531;SDS011;11432;46.924;7.114;2023-06-22T06:16:17;18.38;;;7.03;;
22531;SDS011;11432;46.924;7.114;2023-06-22T06:18:42;15.45;;;7.05;;
22531;SDS011;11432;46.924;7.114;2023-06-22T06:21:08;18.75;;;7.65;;
22531;SDS011;11432;46.924;7.114;2023-06-22T06:23:34;20.35;;;7.25;;
22531;SDS011;11432;46.924;7.114;2023-06-22T06:25:59;16.70;;;6.57;;
22531;SDS011;11432;46.924;7.114;2023-06-22T06:28:26;14.75;;;6.60;;
22531;SDS011;11432;46.924;7.114;2023-06-22T06:30:52;16.02;;;7.82;;
22531;SDS011;11432;46.924;7.114;2023-06-22T06:33:18;13.48;;;7.15;;
22531;SDS011;11432;46.924;7.114;2023-06-22T06:35:44;16.85;;;6.90;;
22531;SDS011;11432;46.924;7.114;2023-06-22T06:38:09;17.23;;;7.78;;
22531;SDS011;11432;46.924;7.114;2023-06-22T06:40:35;17.80;;;6.93;;
22531;SDS011;11432;46.924;7.114;2023-06-22T06:43:01;21.08;;;7.72;;
22531;SDS011;11432;46.924;7.114;2023-06-22T06:45:26;18.10;;;8.43;;
22531;SDS011;11432;46.924;7.114;2023-06-22T06:47:54;22.67;;;7.65;;
22531;SDS011;11432;46.924;7.114;2023-06-22T06:50:19;13.15;;;7.60;;
22531;SDS011;11432;46.924;7.114;2023-06-22T06:52:45;18.35;;;7.10;;
22531;SDS011;11432;46.924;7.114;2023-06-22T06:55:11;19.92;;;7.47;;
22531;SDS011;11432;46.924;7.114;2023-06-22T06:57:37;14.70;;;7.10;;
22531;SDS011;11432;46.924;7.114;2023-06-22T07:00:07;19.58;;;7.65;;
22531;SDS011;11432;46.924;7.114;2023-06-22T07:02:42;14.30;;;7.40;;
22531;SDS011;11432;46.924;7.114;2023-06-22T07:05:09;25.67;;;7.07;;
22531;SDS011;11432;46.924;7.114;2023-06-22T07:07:36;19.27;;;7.38;;
22531;SDS011;11432;46.924;7.114;2023-06-22T07:10:02;22.85;;;7.35;;
22531;SDS011;11432;46.924;7.114;2023-06-22T07:12:28;20.63;;;6.70;;
22531;SDS011;11432;46.924;7.114;2023-06-22T07:14:57;15.18;;;7.05;;
22531;SDS011;11432;46.924;7.114;2023-06-22T07:17:27;15.07;;;7.10;;
22531;SDS011;11432;46.924;7.114;2023-06-22T07:19:53;16.80;;;7.47;;
22531;SDS011;11432;46.924;7.114;2023-06-22T07:22:18;17.65;;;7.72;;
22531;SDS011;11432;46.924;7.114;2023-06-22T07:24:44;16.35;;;8.27;;
22531;SDS011;11432;46.924;7.114;2023-06-22T07:27:09;21.23;;;7.90;;
22531;SDS011;11432;46.924;7.114;2023-06-22T07:29:37;22.73;;;8.07;;
22531;SDS011;11432;46.924;7.114;2023-06-22T07:32:04;13.93;;;7.93;;
22531;SDS011;11432;46.924;7.114;2023-06-22T07:34:30;17.65;;;7.65;;
22531;SDS011;11432;46.924;7.114;2023-06-22T07:36:56;19.58;;;9.38;;
22531;SDS011;11432;46.924;7.114;2023-06-22T07:39:21;16.83;;;8.45;;
22531;SDS011;11432;46.924;7.114;2023-06-22T07:41:50;17.30;;;8.80;;
22531;SDS011;11432;46.924;7.114;2023-06-22T07:44:16;21.92;;;8.98;;
22531;SDS011;11432;46.924;7.114;2023-06-22T07:46:42;17.33;;;8.25;;
22531;SDS011;11432;46.924;7.114;2023-06-22T07:49:08;16.15;;;8.30;;
22531;SDS011;11432;46.924;7.114;2023-06-22T07:51:34;16.98;;;8.05;;
22531;SDS011;11432;46.924;7.114;2023-06-22T07:53:59;23.98;;;9.15;;
22531;SDS011;11432;46.924;7.114;2023-06-22T07:56:25;15.70;;;8.02;;
22531;SDS011;11432;46.924;7.114;2023-06-22T07:58:51;16.27;;;7.45;;
22531;SDS011;11432;46.924;7.114;2023-06-22T08:01:16;18.40;;;9.32;;
22531;SDS011;11432;46.924;7.114;2023-06-22T08:03:44;16.42;;;8.35;;
22531;SDS011;11432;46.924;7.114;2023-06-22T08:06:10;19.33;;;9.32;;
22531;SDS011;11432;46.924;7.114;2023-06-22T08:08:36;19.75;;;8.80;;
22531;SDS011;11432;46.924;7.114;2023-06-22T08:11:02;16.10;;;7.78;;
22531;SDS011;11432;46.924;7.114;2023-06-22T08:13:28;14.32;;;7.72;;
22531;SDS011;11432;46.924;7.114;2023-06-22T08:15:54;20.67;;;8.60;;
22531;SDS011;11432;46.924;7.114;2023-06-22T08:18:19;18.70;;;8.27;;
22531;SDS011;11432;46.924;7.114;2023-06-22T08:20:45;18.73;;;9.15;;
22531;SDS011;11432;46.924;7.114;2023-06-22T08:23:11;19.00;;;8.30;;
22531;SDS011;11432;46.924;7.114;2023-06-22T08:25:36;21.25;;;9.80;;
22531;SDS011;11432;46.924;7.114;2023-06-22T08:28:03;16.92;;;8.40;;
22531;SDS011;11432;46.924;7.114;2023-06-22T08:30:28;20.05;;;8.75;;
22531;SDS011;11432;46.924;7.114;2023-06-22T08:32:54;19.08;;;8.50;;
22531;SDS011;11432;46.924;7.114;2023-06-22T08:35:21;18.83;;;9.35;;
22531;SDS011;11432;46.924;7.114;2023-06-22T08:37:48;19.95;;;8.80;;
22531;SDS011;11432;46.924;7.114;2023-06-22T08:42:44;17.80;;;8.40;;
22531;SDS011;11432;46.924;7.114;2023-06-22T08:45:11;15.52;;;8.85;;
22531;SDS011;11432;46.924;7.114;2023-06-22T08:47:37;16.80;;;7.70;;
22531;SDS011;11432;46.924;7.114;2023-06-22T08:50:03;16.75;;;8.00;;
22531;SDS011;11432;46.924;7.114;2023-06-22T08:52:30;14.95;;;7.20;;
22531;SDS011;11432;46.924;7.114;2023-06-22T08:54:55;21.60;;;8.77;;
22531;SDS011;11432;46.924;7.114;2023-06-22T08:57:21;19.10;;;8.73;;
22531;SDS011;11432;46.924;7.114;2023-06-22T08:59:47;16.85;;;8.35;;
22531;SDS011;11432;46.924;7.114;2023-06-22T09:02:12;18.52;;;8.30;;
22531;SDS011;11432;46.924;7.114;2023-06-22T09:04:38;17.20;;;8.48;;
22531;SDS011;11432;46.924;7.114;2023-06-22T09:07:04;22.23;;;9.13;;
22531;SDS011;11432;46.924;7.114;2023-06-22T09:09:30;15.82;;;8.25;;
22531;SDS011;11432;46.924;7.114;2023-06-22T09:11:55;16.52;;;8.80;;
22531;SDS011;11432;46.924;7.114;2023-06-22T09:14:21;18.40;;;9.05;;
22531;SDS011;11432;46.924;7.114;2023-06-22T09:16:47;22.80;;;9.90;;
22531;SDS011;11432;46.924;7.114;2023-06-22T09:19:12;20.05;;;8.68;;
22531;SDS011;11432;46.924;7.114;2023-06-22T09:21:38;15.23;;;8.35;;
22531;SDS011;11432;46.924;7.114;2023-06-22T09:24:04;19.15;;;8.95;;
22531;SDS011;11432;46.924;7.114;2023-06-22T09:26:30;15.63;;;8.02;;
22531;SDS011;11432;46.924;7.114;2023-06-22T09:28:55;19.42;;;9.07;;
22531;SDS011;11432;46.924;7.114;2023-06-22T09:31:21;17.88;;;8.50;;
22531;SDS011;11432;46.924;7.114;2023-06-22T09:33:51;17.30;;;9.30;;
22531;SDS011;11432;46.924;7.114;2023-06-22T09:36:22;16.80;;;8.77;;
22531;SDS011;11432;46.924;7.114;2023-06-22T09:38:48;19.35;;;8.70;;
22531;SDS011;11432;46.924;7.114;2023-06-22T09:41:20;16.63;;;8.07;;
22531;SDS011;11432;46.924;7.114;2023-06-22T09:43:45;13.05;;;8.18;;
22531;SDS011;11432;46.924;7.114;2023-06-22T09:46:11;12.80;;;7.88;;
22531;SDS011;11432;46.924;7.114;2023-06-22T09:48:37;15.63;;;7.32;;
22531;SDS011;11432;46.924;7.114;2023-06-22T09:51:02;21.50;;;8.48;;
22531;SDS011;11432;46.924;7.114;2023-06-22T09:53:28;18.77;;;8.38;;
22531;SDS011;11432;46.924;7.114;2023-06-22T09:55:53;14.10;;;7.72;;
22531;SDS011;11432;46.924;7.114;2023-06-22T09:58:19;15.85;;;7.30;;
22531;SDS011;11432;46.924;7.114;2023-06-22T10:00:45;15.40;;;7.28;;
22531;SDS011;11432;46.924;7.114;2023-06-22T10:03:10;14.05;;;7.82;;
22531;SDS011;11432;46.924;7.114;2023-06-22T10:05:36;18.83;;;8.32;;
22531;SDS011;11432;46.924;7.114;2023-06-22T10:08:02;17.92;;;7.85;;
22531;SDS011;11432;46.924;7.114;2023-06-22T10:10:27;14.80;;;7.60;;
22531;SDS011;11432;46.924;7.114;2023-06-22T10:12:57;18.42;;;8.80;;
22531;SDS011;11432;46.924;7.114;2023-06-22T10:15:27;16.73;;;8.48;;
22531;SDS011;11432;46.924;7.114;2023-06-22T10:17:53;18.92;;;9.07;;
22531;SDS011;11432;46.924;7.114;2023-06-22T10:20:18;19.50;;;8.30;;
22531;SDS011;11432;46.924;7.114;2023-06-22T10:22:45;21.77;;;9.75;;
22531;SDS011;11432;46.924;7.114;2023-06-22T10:25:11;24.13;;;9.50;;
22531;SDS011;11432;46.924;7.114;2023-06-22T10:27:38;17.73;;;9.55;;
22531;SDS011;11432;46.924;7.114;2023-06-22T10:32:33;14.88;;;8.13;;
22531;SDS011;11432;46.924;7.114;2023-06-22T10:34:59;16.45;;;8.93;;
22531;SDS011;11432;46.924;7.114;2023-06-22T10:37:24;17.20;;;9.13;;
22531;SDS011;11432;46.924;7.114;2023-06-22T10:39:50;19.67;;;9.18;;
22531;SDS011;11432;46.924;7.114;2023-06-22T10:42:15;16.88;;;9.65;;
22531;SDS011;11432;46.924;7.114;2023-06-22T10:44:41;22.83;;;10.40;;
22531;SDS011;11432;46.924;7.114;2023-06-22T10:47:09;18.27;;;9.40;;
22531;SDS011;11432;46.924;7.114;2023-06-22T10:49:36;28.23;;;10.07;;
22531;SDS011;11432;46.924;7.114;2023-06-22T10:52:03;19.65;;;9.48;;
22531;SDS011;11432;46.924;7.114;2023-06-22T10:54:28;19.30;;;9.30;;
22531;SDS011;11432;46.924;7.114;2023-06-22T10:56:54;21.48;;;9.88;;
22531;SDS011;11432;46.924;7.114;2023-06-22T10:59:20;20.35;;;9.23;;
22531;SDS011;11432;46.924;7.114;2023-06-22T11:01:46;17.85;;;10.38;;
22531;SDS011;11432;46.924;7.114;2023-06-22T11:04:12;19.73;;;9.60;;
22531;SDS011;11432;46.924;7.114;2023-06-22T11:06:37;20.55;;;9.73;;
22531;SDS011;11432;46.924;7.114;2023-06-22T11:09:03;20.10;;;10.05;;
22531;SDS011;11432;46.924;7.114;2023-06-22T11:11:29;23.05;;;10.10;;
22531;SDS011;11432;46.924;7.114;2023-06-22T11:13:54;19.38;;;9.15;;
22531;SDS011;11432;46.924;7.114;2023-06-22T11:16:20;20.80;;;9.57;;
22531;SDS011;11432;46.924;7.114;2023-06-22T11:18:46;17.80;;;8.73;;
22531;SDS011;11432;46.924;7.114;2023-06-22T11:21:11;21.40;;;10.63;;
22531;SDS011;11432;46.924;7.114;2023-06-22T11:23:37;21.17;;;10.35;;
22531;SDS011;11432;46.924;7.114;2023-06-22T11:26:02;22.55;;;9.45;;
22531;SDS011;11432;46.924;7.114;2023-06-22T11:28:28;23.95;;;10.93;;
22531;SDS011;11432;46.924;7.114;2023-06-22T11:30:54;18.95;;;8.60;;
22531;SDS011;11432;46.924;7.114;2023-06-22T11:33:19;20.90;;;9.63;;
22531;SDS011;11432;46.924;7.114;2023-06-22T11:35:45;17.90;;;9.75;;
22531;SDS011;11432;46.924;7.114;2023-06-22T11:38:10;18.92;;;9.57;;
22531;SDS011;11432;46.924;7.114;2023-06-22T11:40:36;18.13;;;8.30;;
22531;SDS011;11432;46.924;7.114;2023-06-22T11:43:01;20.73;;;8.40;;
22531;SDS011;11432;46.924;7.114;2023-06-22T11:45:27;16.25;;;7.28;;
22531;SDS011;11432;46.924;7.114;2023-06-22T11:47:53;17.98;;;7.15;;
22531;SDS011;11432;46.924;7.114;2023-06-22T11:50:18;16.27;;;6.32;;
22531;SDS011;11432;46.924;7.114;2023-06-22T11:52:44;13.73;;;6.50;;
22531;SDS011;11432;46.924;7.114;2023-06-22T11:55:10;14.18;;;5.90;;
22531;SDS011;11432;46.924;7.114;2023-06-22T11:57:36;10.05;;;4.55;;
22531;SDS011;11432;46.924;7.114;2023-06-22T12:00:03;13.75;;;4.60;;
22531;SDS011;11432;46.924;7.114;2023-06-22T12:02:42;12.98;;;4.50;;
22531;SDS011;11432;46.924;7.114;2023-06-22T12:05:10;12.68;;;3.70;;
22531;SDS011;11432;46.924;7.114;2023-06-22T12:07:35;15.18;;;3.33;;
22531;SDS011;11432;46.924;7.114;2023-06-22T12:10:02;8.23;;;3.13;;
22531;SDS011;11432;46.924;7.114;2023-06-22T12:12:28;7.75;;;2.90;;
22531;SDS011;11432;46.924;7.114;2023-06-22T12:14:54;8.68;;;2.80;;
22531;SDS011;11432;46.924;7.114;2023-06-22T12:17:19;9.27;;;2.63;;
22531;SDS011;11432;46.924;7.114;2023-06-22T12:19:45;8.30;;;2.55;;
22531;SDS011;11432;46.924;7.114;2023-06-22T12:22:11;11.35;;;2.95;;
22531;SDS011;11432;46.924;7.114;2023-06-22T12:24:36;9.95;;;2.47;;
22531;SDS011;11432;46.924;7.114;2023-06-22T12:27:03;9.32;;;2.88;;
22531;SDS011;11432;46.924;7.114;2023-06-22T12:29:29;13.05;;;2.85;;
22531;SDS011;11432;46.924;7.114;2023-06-22T12:31:54;8.43;;;2.70;;
22531;SDS011;11432;46.924;7.114;2023-06-22T12:34:20;8.18;;;2.45;;
22531;SDS011;11432;46.924;7.114;2023-06-22T12:36:45;8.93;;;2.60;;
22531;SDS011;11432;46.924;7.114;2023-06-22T12:39:13;8.48;;;2.53;;
22531;SDS011;11432;46.924;7.114;2023-06-22T12:41:39;12.23;;;3.00;;
22531;SDS011;11432;46.924;7.114;2023-06-22T12:44:04;12.90;;;3.33;;
22531;SDS011;11432;46.924;7.114;2023-06-22T12:46:30;7.72;;;2.45;;
22531;SDS011;11432;46.924;7.114;2023-06-22T12:49:02;10.10;;;3.08;;
22531;SDS011;11432;46.924;7.114;2023-06-22T12:51:29;12.27;;;3.25;;
22531;SDS011;11432;46.924;7.114;2023-06-22T12:53:54;16.20;;;2.75;;
22531;SDS011;11432;46.924;7.114;2023-06-22T12:56:20;11.27;;;3.10;;
22531;SDS011;11432;46.924;7.114;2023-06-22T12:58:45;12.07;;;2.90;;
22531;SDS011;11432;46.924;7.114;2023-06-22T13:01:11;7.15;;;2.30;;
22531;SDS011;11432;46.924;7.114;2023-06-22T13:03:37;9.38;;;2.70;;
22531;SDS011;11432;46.924;7.114;2023-06-22T13:06:02;10.32;;;2.45;;
22531;SDS011;11432;46.924;7.114;2023-06-22T13:08:28;10.23;;;2.42;;
22531;SDS011;11432;46.924;7.114;2023-06-22T13:10:54;13.70;;;2.60;;
22531;SDS011;11432;46.924;7.114;2023-06-22T13:13:23;13.23;;;3.22;;
22531;SDS011;11432;46.924;7.114;2023-06-22T13:15:52;15.57;;;3.00;;
22531;SDS011;11432;46.924;7.114;2023-06-22T13:18:19;12.30;;;3.10;;
22531;SDS011;11432;46.924;7.114;2023-06-22T13:20:44;10.05;;;2.70;;
22531;SDS011;11432;46.924;7.114;2023-06-22T13:23:10;12.07;;;2.33;;
22531;SDS011;11432;46.924;7.114;2023-06-22T13:25:36;8.68;;;2.17;;
22531;SDS011;11432;46.924;7.114;2023-06-22T13:28:02;11.13;;;3.17;;
22531;SDS011;11432;46.924;7.114;2023-06-22T13:30:28;12.63;;;2.50;;
22531;SDS011;11432;46.924;7.114;2023-06-22T13:32:53;12.40;;;2.67;;
22531;SDS011;11432;46.924;7.114;2023-06-22T13:35:19;17.67;;;3.00;;
22531;SDS011;11432;46.924;7.114;2023-06-22T13:37:44;12.10;;;2.75;;
22531;SDS011;11432;46.924;7.114;2023-06-22T13:40:10;12.52;;;2.55;;
22531;SDS011;11432;46.924;7.114;2023-06-22T13:42:36;12.10;;;2.85;;
22531;SDS011;11432;46.924;7.114;2023-06-22T13:45:02;9.25;;;2.13;;
22531;SDS011;11432;46.924;7.114;2023-06-22T13:47:28;8.20;;;2.47;;
22531;SDS011;11432;46.924;7.114;2023-06-22T13:49:55;10.60;;;2.05;;
22531;SDS011;11432;46.924;7.114;2023-06-22T13:52:20;9.90;;;2.28;;
22531;SDS011;11432;46.924;7.114;2023-06-22T13:54:47;9.48;;;3.05;;
22531;SDS011;11432;46.924;7.114;2023-06-22T13:57:12;13.85;;;2.88;;
22531;SDS011;11432;46.924;7.114;2023-06-22T13:59:38;12.70;;;2.80;;
22531;SDS011;11432;46.924;7.114;2023-06-22T14:02:04;9.60;;;2.22;;
22531;SDS011;11432;46.924;7.114;2023-06-22T14:04:29;5.25;;;2.50;;
22531;SDS011;11432;46.924;7.114;2023-06-22T14:06:55;6.82;;;1.83;;
22531;SDS011;11432;46.924;7.114;2023-06-22T14:09:21;8.07;;;2.10;;
22531;SDS011;11432;46.924;7.114;2023-06-22T14:11:46;12.35;;;2.78;;
22531;SDS011;11432;46.924;7.114;2023-06-22T14:14:12;8.82;;;2.28;;
22531;SDS011;11432;46.924;7.114;2023-06-22T14:16:38;12.07;;;2.88;;
22531;SDS011;11432;46.924;7.114;2023-06-22T14:19:03;8.90;;;2.30;;
22531;SDS011;11432;46.924;7.114;2023-06-22T14:21:29;8.80;;;2.20;;
22531;SDS011;11432;46.924;7.114;2023-06-22T14:23:54;11.30;;;2.72;;
22531;SDS011;11432;46.924;7.114;2023-06-22T14:26:20;9.15;;;2.42;;
22531;SDS011;11432;46.924;7.114;2023-06-22T14:28:47;9.40;;;2.30;;
22531;SDS011;11432;46.924;7.114;2023-06-22T14:31:15;14.10;;;2.53;;
22531;SDS011;11432;46.924;7.114;2023-06-22T14:33:43;10.50;;;2.40;;
22531;SDS011;11432;46.924;7.114;2023-06-22T14:36:12;11.02;;;2.38;;
22531;SDS011;11432;46.924;7.114;2023-06-22T14:38:38;9.65;;;2.28;;
22531;SDS011;11432;46.924;7.114;2023-06-22T14:41:04;12.93;;;2.60;;
22531;SDS011;11432;46.924;7.114;2023-06-22T14:43:30;10.80;;;2.40;;
22531;SDS011;11432;46.924;7.114;2023-06-22T14:46:56;10.18;;;2.53;;
22531;SDS011;11432;46.924;7.114;2023-06-22T14:49:22;6.93;;;2.33;;